Time;durP1;ratioP1;P1;durP2;ratioP2;P2;SDS_P1;SDS_P2;PMS_P1;PMS_P2;Temp;Humidity;BMP_temperature;BMP_pressure;BME280_temperature;BME280_humidity;BME280_pressure;Samples;Min_cycle;Max_cycle;Signal;HPM_P1;HPM_P2
2024/03/29 00:00:44;;;;;;;1.75;0.30;;;19.00;59.20;;;;;;5031420;28;20041;-49
2024/03/29 00:03:10;;;;;;;0.52;0.30;;;19.10;59.20;;;;;;5033591;28;20053;-55
2024/03/29 00:05:35;;;;;;;0.70;0.50;;;19.10;59.20;;;;;;5039828;28;20393;-55
2024/03/29 00:08:02;;;;;;;0.43;0.40;;;19.10;59.20;;;;;;5036538;28;20022;-50
2024/03/29 00:10:27;;;;;;;0.45;0.32;;;19.10;59.30;;;;;;5044656;28;20693;-55
2024/03/29 00:12:53;;;;;;;0.30;0.30;;;19.10;59.20;;;;;;5045612;28;20029;-51
2024/03/29 00:15:18;;;;;;;1.13;0.40;;;19.10;59.20;;;;;;5042986;28;20503;-48
2024/03/29 00:17:43;;;;;;;0.25;0.17;;;19.10;59.20;;;;;;5028912;28;20674;-56
2024/03/29 00:20:09;;;;;;;0.22;0.20;;;19.10;59.20;;;;;;5039354;28;20045;-55
2024/03/29 00:22:35;;;;;;;0.30;0.20;;;19.10;59.20;;;;;;5036844;28;20082;-51
2024/03/29 00:25:01;;;;;;;0.43;0.28;;;19.10;59.20;;;;;;5039293;28;20060;-57
2024/03/29 00:27:28;;;;;;;0.35;0.28;;;19.10;59.20;;;;;;5043280;28;20060;-49
2024/03/29 00:29:54;;;;;;;0.20;0.20;;;19.10;59.20;;;;;;5037158;28;20082;-50
2024/03/29 00:32:20;;;;;;;0.30;0.22;;;19.10;59.20;;;;;;5037055;28;20033;-53
2024/03/29 00:34:45;;;;;;;1.33;0.30;;;19.10;59.20;;;;;;5033063;28;20025;-48
2024/03/29 00:37:11;;;;;;;0.52;0.45;;;19.10;59.20;;;;;;5040861;28;20044;-54
2024/03/29 00:39:37;;;;;;;0.20;0.20;;;19.10;59.20;;;;;;5036992;28;20375;-55
2024/03/29 00:42:04;;;;;;;0.52;0.20;;;19.10;59.20;;;;;;5045041;28;20182;-55
2024/03/29 00:44:30;;;;;;;0.30;0.28;;;19.10;59.20;;;;;;5041341;28;20044;-52
2024/03/29 00:46:55;;;;;;;0.20;0.20;;;19.10;59.20;;;;;;5036424;28;20072;-56
2024/03/29 00:49:20;;;;;;;0.93;0.32;;;19.10;59.20;;;;;;5043866;28;20035;-52
2024/03/29 00:51:46;;;;;;;0.30;0.20;;;19.10;59.20;;;;;;5044368;28;20101;-50
2024/03/29 00:54:11;;;;;;;0.28;0.20;;;19.10;59.20;;;;;;5031941;28;20580;-54
2024/03/29 00:56:37;;;;;;;0.57;0.30;;;19.10;59.20;;;;;;5041012;28;20031;-52
2024/03/29 00:59:02;;;;;;;0.45;0.20;;;19.10;59.20;;;;;;5032621;28;20041;-55
2024/03/29 01:01:28;;;;;;;0.30;0.25;;;19.10;59.20;;;;;;5035637;28;20063;-54
2024/03/29 01:03:53;;;;;;;0.55;0.25;;;19.10;59.20;;;;;;5020618;28;20406;-49
2024/03/29 01:06:19;;;;;;;0.30;0.20;;;19.10;59.20;;;;;;5018911;28;20156;-56
2024/03/29 01:08:45;;;;;;;0.40;0.30;;;19.00;59.20;;;;;;5035860;28;20138;-54
2024/03/29 01:11:10;;;;;;;0.43;0.20;;;19.00;59.30;;;;;;5040302;28;20715;-49
2024/03/29 01:13:36;;;;;;;0.17;0.15;;;19.00;59.20;;;;;;5030049;28;20043;-53
2024/03/29 01:16:02;;;;;;;0.30;0.30;;;19.00;59.30;;;;;;5044831;28;20512;-57
2024/03/29 01:18:27;;;;;;;0.38;0.30;;;18.90;60.00;;;;;;5031662;28;20032;-55
2024/03/29 01:20:52;;;;;;;0.65;0.30;;;18.90;59.40;;;;;;5036650;28;20493;-49
2024/03/29 01:23:18;;;;;;;0.30;0.30;;;18.90;59.50;;;;;;5040303;28;20055;-56
2024/03/29 01:25:43;;;;;;;0.30;0.30;;;18.80;59.50;;;;;;5042811;28;20030;-51
2024/03/29 01:28:09;;;;;;;0.45;0.20;;;18.80;59.50;;;;;;5041215;28;20036;-48
2024/03/29 01:30:34;;;;;;;0.40;0.22;;;18.80;59.60;;;;;;5040337;28;20748;-55
2024/03/29 01:33:00;;;;;;;0.30;0.30;;;18.80;59.70;;;;;;5041196;28;20077;-51
2024/03/29 01:35:25;;;;;;;0.20;0.20;;;18.80;59.80;;;;;;5042670;28;20042;-53
2024/03/29 01:37:51;;;;;;;0.75;0.20;;;18.80;59.80;;;;;;5041805;28;20036;-49
2024/03/29 01:40:16;;;;;;;0.25;0.15;;;18.80;59.80;;;;;;5043803;28;20070;-56
2024/03/29 01:42:42;;;;;;;1.65;0.28;;;18.70;59.80;;;;;;5033689;28;20017;-51
2024/03/29 01:45:08;;;;;;;0.32;0.20;;;18.70;59.90;;;;;;5045233;28;20029;-56
2024/03/29 01:47:33;;;;;;;0.30;0.30;;;18.70;59.80;;;;;;5041747;28;20688;-52
2024/03/29 01:49:59;;;;;;;0.20;0.13;;;18.70;59.80;;;;;;5047355;28;20029;-57
2024/03/29 01:52:27;;;;;;;1.15;0.20;;;18.70;60.40;;;;;;5042836;28;20437;-53
2024/03/29 01:54:52;;;;;;;0.75;0.40;;;18.70;59.70;;;;;;5043019;28;20040;-53
2024/03/29 01:57:18;;;;;;;0.32;0.30;;;18.80;59.70;;;;;;5034969;28;20041;-53
2024/03/29 01:59:46;;;;;;;0.30;0.20;;;18.80;59.60;;;;;;5025967;28;20444;-55
2024/03/29 02:02:12;;;;;;;0.43;0.30;;;18.80;59.50;;;;;;5035170;28;20083;-49
2024/03/29 02:04:37;;;;;;;0.47;0.28;;;18.80;59.50;;;;;;5038383;28;20045;-55
2024/03/29 02:07:03;;;;;;;0.50;0.30;;;18.90;59.40;;;;;;5038899;28;20040;-57
2024/03/29 02:09:29;;;;;;;0.35;0.28;;;18.90;59.20;;;;;;5044642;28;20032;-51
2024/03/29 02:11:55;;;;;;;0.25;0.20;;;19.00;59.30;;;;;;5034592;28;20125;-54
2024/03/29 02:14:20;;;;;;;1.13;0.30;;;19.00;59.20;;;;;;5042773;28;20033;-54
2024/03/29 02:16:46;;;;;;;0.95;0.55;;;19.00;59.80;;;;;;5021536;28;20037;-54
2024/03/29 02:19:11;;;;;;;0.30;0.22;;;19.00;59.00;;;;;;5026424;28;20108;-55
2024/03/29 02:21:42;;;;;;;0.55;0.30;;;19.10;59.00;;;;;;5030087;28;20025;-51
2024/03/29 02:24:08;;;;;;;0.30;0.20;;;19.10;58.90;;;;;;5041391;28;20045;-55
2024/03/29 02:26:36;;;;;;;0.52;0.40;;;19.20;58.80;;;;;;5027705;28;20055;-58
2024/03/29 02:29:02;;;;;;;2.78;0.30;;;19.20;58.80;;;;;;5039111;28;20037;-53
2024/03/29 02:31:28;;;;;;;0.30;0.20;;;19.20;58.80;;;;;;5041549;28;20032;-54
2024/03/29 02:33:54;;;;;;;0.50;0.30;;;19.20;58.70;;;;;;5038999;28;20119;-56
2024/03/29 02:36:19;;;;;;;0.32;0.20;;;19.20;58.60;;;;;;5034342;28;20037;-51
2024/03/29 02:38:45;;;;;;;0.55;0.20;;;19.20;58.50;;;;;;5037705;28;20025;-52
2024/03/29 02:41:10;;;;;;;0.82;0.32;;;19.20;58.50;;;;;;5041563;28;20119;-50
2024/03/29 02:43:36;;;;;;;0.73;0.40;;;19.30;58.50;;;;;;5037068;28;20121;-51
2024/03/29 02:46:01;;;;;;;0.65;0.30;;;19.30;58.40;;;;;;5042871;28;20047;-51
2024/03/29 02:48:27;;;;;;;0.28;0.20;;;19.30;58.40;;;;;;5028820;28;20037;-52
2024/03/29 02:50:52;;;;;;;0.40;0.30;;;19.30;58.40;;;;;;5033570;28;25877;-54
2024/03/29 02:53:18;;;;;;;0.80;0.20;;;19.40;58.40;;;;;;5043763;28;20078;-51
2024/03/29 02:55:43;;;;;;;0.40;0.17;;;19.40;58.40;;;;;;5040351;28;20033;-54
2024/03/29 02:58:09;;;;;;;0.32;0.20;;;19.30;58.50;;;;;;5043789;28;20043;-59
2024/03/29 03:00:34;;;;;;;0.63;0.25;;;19.30;58.30;;;;;;5001057;28;20044;-59
2024/03/29 03:03:00;;;;;;;0.35;0.35;;;19.40;58.40;;;;;;5002220;28;20133;-52
2024/03/29 03:05:25;;;;;;;0.50;0.40;;;19.30;58.30;;;;;;5004397;28;20033;-56
2024/03/29 03:13:19;;;;;;;0.40;0.25;;;19.30;58.40;;;;;;5041080;28;20031;-55
2024/03/29 03:15:44;;;;;;;0.60;0.30;;;19.40;58.40;;;;;;5014969;28;20022;-50
2024/03/29 03:18:10;;;;;;;0.30;0.30;;;19.30;58.40;;;;;;5034686;28;20049;-56
2024/03/29 03:20:37;;;;;;;0.38;0.38;;;19.30;58.40;;;;;;5026107;28;20503;-53
2024/03/29 03:23:03;;;;;;;0.40;0.30;;;19.30;58.50;;;;;;5037683;28;20041;-55
2024/03/29 03:25:29;;;;;;;0.57;0.20;;;19.20;58.50;;;;;;5043541;28;20552;-50
2024/03/29 03:27:54;;;;;;;0.52;0.30;;;19.20;58.50;;;;;;5036634;28;20497;-52
2024/03/29 03:30:20;;;;;;;0.75;0.17;;;19.20;58.60;;;;;;5044557;28;20385;-50
2024/03/29 03:32:45;;;;;;;1.08;0.20;;;19.20;58.70;;;;;;5037054;28;20028;-55
2024/03/29 03:35:11;;;;;;;0.30;0.25;;;19.20;58.70;;;;;;5038864;28;20025;-49
2024/03/29 03:37:36;;;;;;;0.22;0.20;;;19.20;58.80;;;;;;5040600;28;20036;-56
2024/03/29 03:40:04;;;;;;;0.65;0.30;;;19.20;58.90;;;;;;5041347;28;20037;-51
2024/03/29 03:42:30;;;;;;;0.20;0.20;;;19.20;58.90;;;;;;5042672;28;20076;-49
2024/03/29 03:44:55;;;;;;;0.30;0.20;;;19.10;58.90;;;;;;5043944;28;20460;-56
2024/03/29 03:47:21;;;;;;;1.23;0.30;;;19.10;58.90;;;;;;5040491;28;20108;-49
2024/03/29 03:49:46;;;;;;;0.30;0.30;;;19.10;59.00;;;;;;5040456;28;20021;-56
2024/03/29 03:52:12;;;;;;;1.33;0.43;;;19.10;59.00;;;;;;5040502;28;20041;-53
2024/03/29 03:54:37;;;;;;;0.45;0.20;;;19.00;59.00;;;;;;5044204;28;20037;-49
2024/03/29 03:57:04;;;;;;;0.70;0.30;;;19.00;59.00;;;;;;5041807;28;20040;-52
2024/03/29 03:59:29;;;;;;;0.15;0.15;;;19.00;59.10;;;;;;5040395;28;20474;-49
2024/03/29 04:01:55;;;;;;;0.82;0.22;;;19.00;59.10;;;;;;5022188;28;20040;-58
2024/03/29 04:04:20;;;;;;;1.52;0.30;;;19.00;59.20;;;;;;5035557;28;20098;-56
2024/03/29 04:06:46;;;;;;;1.42;0.30;;;19.00;59.20;;;;;;5013255;28;20048;-54
2024/03/29 04:09:15;;;;;;;0.20;0.20;;;19.00;59.20;;;;;;5045465;28;20037;-59
2024/03/29 04:11:41;;;;;;;0.75;0.20;;;19.00;59.20;;;;;;5039962;28;20608;-55
2024/03/29 04:14:07;;;;;;;0.52;0.38;;;19.00;59.20;;;;;;5024982;28;20040;-56
2024/03/29 04:16:32;;;;;;;0.77;0.20;;;18.90;59.10;;;;;;5048556;28;20124;-54
2024/03/29 04:18:58;;;;;;;0.20;0.20;;;19.00;59.20;;;;;;5039812;28;20319;-50
2024/03/29 04:21:23;;;;;;;0.80;0.50;;;19.00;59.20;;;;;;5030122;28;20094;-51
2024/03/29 04:23:49;;;;;;;0.20;0.20;;;19.00;59.20;;;;;;5042332;28;20040;-51
2024/03/29 04:26:14;;;;;;;0.75;0.25;;;18.90;59.00;;;;;;5042430;28;20032;-58
2024/03/29 04:28:40;;;;;;;0.95;0.22;;;19.00;59.20;;;;;;5039506;28;20571;-52
2024/03/29 04:31:05;;;;;;;0.32;0.30;;;18.90;59.10;;;;;;5039213;28;20043;-56
2024/03/29 04:33:31;;;;;;;0.28;0.20;;;19.00;59.20;;;;;;5044163;28;20036;-55
2024/03/29 04:35:58;;;;;;;1.50;0.28;;;18.90;59.10;;;;;;5033478;28;20409;-49
2024/03/29 04:38:24;;;;;;;0.57;0.38;;;18.90;59.10;;;;;;5042066;28;20035;-53
2024/03/29 04:40:52;;;;;;;0.63;0.20;;;18.90;59.10;;;;;;5046801;28;20037;-56
2024/03/29 04:43:18;;;;;;;0.60;0.30;;;18.90;59.20;;;;;;5041319;28;20039;-53
2024/03/29 04:45:44;;;;;;;0.30;0.10;;;18.90;59.10;;;;;;5020143;28;20029;-50
2024/03/29 04:48:11;;;;;;;0.60;0.20;;;18.90;59.10;;;;;;5020748;28;20025;-52
2024/03/29 04:50:36;;;;;;;0.93;0.40;;;18.90;59.10;;;;;;5034218;28;20021;-51
2024/03/29 04:53:02;;;;;;;0.22;0.20;;;18.90;59.10;;;;;;5032197;28;20040;-51
2024/03/29 04:55:27;;;;;;;0.45;0.10;;;18.90;59.20;;;;;;5038360;28;20025;-58
2024/03/29 04:57:53;;;;;;;0.65;0.40;;;18.90;59.10;;;;;;5039988;28;20047;-49
2024/03/29 05:00:18;;;;;;;0.50;0.30;;;18.90;59.10;;;;;;5040286;28;20044;-52
2024/03/29 05:02:44;;;;;;;1.20;0.32;;;18.90;59.10;;;;;;5043113;28;20496;-54
2024/03/29 05:05:09;;;;;;;0.30;0.10;;;18.90;59.10;;;;;;5041641;28;20037;-55
2024/03/29 05:07:35;;;;;;;0.50;0.20;;;18.90;59.10;;;;;;5035399;28;20575;-49
2024/03/29 05:10:00;;;;;;;0.20;0.20;;;18.90;59.10;;;;;;5039481;28;20087;-52
2024/03/29 05:12:26;;;;;;;1.10;0.30;;;18.90;59.10;;;;;;5043821;28;20060;-55
2024/03/29 05:14:51;;;;;;;0.45;0.28;;;18.90;59.10;;;;;;5041213;28;20107;-52
2024/03/29 05:17:20;;;;;;;0.63;0.28;;;18.90;59.10;;;;;;5043125;28;20523;-49
2024/03/29 05:19:45;;;;;;;0.20;0.20;;;18.90;59.10;;;;;;5042092;28;20094;-51
2024/03/29 05:22:11;;;;;;;0.20;0.20;;;18.90;59.10;;;;;;5042678;28;20498;-52
2024/03/29 05:24:36;;;;;;;0.60;0.20;;;18.90;59.00;;;;;;5040909;28;20108;-53
2024/03/29 05:27:02;;;;;;;0.30;0.30;;;18.90;59.10;;;;;;5040385;28;20063;-52
2024/03/29 05:29:27;;;;;;;0.70;0.25;;;18.90;59.00;;;;;;5042163;28;20037;-49
2024/03/29 05:31:53;;;;;;;0.40;0.20;;;18.90;58.90;;;;;;5042833;28;20082;-55
2024/03/29 05:34:18;;;;;;;0.43;0.30;;;19.00;59.00;;;;;;5042036;28;20041;-55
2024/03/29 05:36:45;;;;;;;0.30;0.30;;;18.90;59.00;;;;;;5041483;28;20033;-50
2024/03/29 05:39:10;;;;;;;0.52;0.30;;;18.90;58.90;;;;;;5042465;28;20025;-55
2024/03/29 05:41:36;;;;;;;0.90;0.22;;;19.00;59.00;;;;;;5043650;28;20040;-51
2024/03/29 05:44:03;;;;;;;0.28;0.20;;;19.00;59.00;;;;;;5042934;28;20889;-52
2024/03/29 05:46:28;;;;;;;0.30;0.20;;;19.00;59.00;;;;;;5040659;28;20079;-52
2024/03/29 05:48:54;;;;;;;0.32;0.20;;;19.00;59.00;;;;;;5042318;28;20533;-51
2024/03/29 05:51:19;;;;;;;0.40;0.28;;;19.00;59.00;;;;;;5033741;28;20115;-52
2024/03/29 05:53:45;;;;;;;0.28;0.20;;;19.00;58.90;;;;;;5041910;28;20032;-55
2024/03/29 05:56:11;;;;;;;0.55;0.20;;;19.00;59.00;;;;;;5039479;28;20029;-47
2024/03/29 05:58:37;;;;;;;0.73;0.20;;;19.00;58.90;;;;;;5043441;28;20028;-55
2024/03/29 06:01:03;;;;;;;0.22;0.20;;;19.00;58.90;;;;;;5041868;28;20041;-53
2024/03/29 06:03:29;;;;;;;0.20;0.20;;;19.00;58.90;;;;;;5048062;28;20029;-49
2024/03/29 06:05:54;;;;;;;0.17;0.17;;;19.00;58.80;;;;;;5043519;28;20032;-52
2024/03/29 06:08:21;;;;;;;0.70;0.35;;;19.00;58.80;;;;;;5048928;28;20032;-53
2024/03/29 06:10:46;;;;;;;0.20;0.20;;;19.00;58.90;;;;;;5041569;28;20079;-53
2024/03/29 06:13:29;;;;;;;0.38;0.20;;;19.00;58.80;;;;;;5039722;28;20025;-52
2024/03/29 06:18:39;;;;;;;0.57;0.30;;;19.00;58.80;;;;;;5039726;28;20063;-53
2024/03/29 06:21:05;;;;;;;0.40;0.20;;;19.00;58.80;;;;;;5035731;28;20104;-53
2024/03/29 06:23:30;;;;;;;0.60;0.40;;;19.00;58.80;;;;;;5044331;28;20040;-53
2024/03/29 06:25:56;;;;;;;0.60;0.52;;;19.00;58.90;;;;;;5044931;28;20029;-51
2024/03/29 06:28:21;;;;;;;0.50;0.32;;;19.00;58.90;;;;;;5042338;28;20111;-56
2024/03/29 06:30:47;;;;;;;0.30;0.20;;;19.00;58.80;;;;;;5039753;28;20025;-53
2024/03/29 06:33:12;;;;;;;0.50;0.20;;;19.00;58.80;;;;;;5046984;28;20037;-52
2024/03/29 06:35:38;;;;;;;0.10;0.10;;;19.00;58.80;;;;;;5041567;28;20123;-53
2024/03/29 06:38:04;;;;;;;0.52;0.30;;;19.00;58.80;;;;;;5043024;28;20091;-51
2024/03/29 06:40:29;;;;;;;0.30;0.20;;;19.00;58.90;;;;;;5042011;28;20075;-62
2024/03/29 06:42:56;;;;;;;0.40;0.20;;;19.00;58.80;;;;;;5044997;28;20021;-53
2024/03/29 06:45:21;;;;;;;0.45;0.20;;;19.00;58.80;;;;;;5042870;28;20101;-53
2024/03/29 06:47:47;;;;;;;0.73;0.30;;;19.00;58.80;;;;;;5042526;28;20477;-51
2024/03/29 06:50:13;;;;;;;0.40;0.20;;;19.00;58.80;;;;;;5038571;28;20017;-54
2024/03/29 06:52:39;;;;;;;0.32;0.10;;;19.00;58.80;;;;;;5043326;28;20052;-54
2024/03/29 06:55:05;;;;;;;0.10;0.10;;;19.00;58.80;;;;;;5033029;28;20029;-52
2024/03/29 06:57:31;;;;;;;0.30;0.20;;;19.00;58.80;;;;;;5030075;28;20033;-54
2024/03/29 06:59:58;;;;;;;0.90;0.25;;;19.00;58.90;;;;;;5039734;28;20036;-51
2024/03/29 07:02:23;;;;;;;0.47;0.22;;;19.00;59.50;;;;;;5043494;28;20037;-54
2024/03/29 07:04:49;;;;;;;0.20;0.10;;;19.00;58.80;;;;;;5032263;28;20044;-50
2024/03/29 07:07:14;;;;;;;0.50;0.30;;;19.00;58.80;;;;;;5018384;28;20025;-51
2024/03/29 07:09:40;;;;;;;0.55;0.20;;;19.00;58.80;;;;;;5036153;28;20033;-59
2024/03/29 07:12:06;;;;;;;0.73;0.55;;;19.00;58.80;;;;;;5024340;28;20049;-53
2024/03/29 07:14:33;;;;;;;0.20;0.20;;;19.00;58.80;;;;;;5035772;28;20029;-55
2024/03/29 07:16:58;;;;;;;0.20;0.20;;;19.00;58.90;;;;;;5032617;28;20052;-50
2024/03/29 07:19:24;;;;;;;0.52;0.20;;;19.00;58.80;;;;;;5042332;28;20067;-49
2024/03/29 07:21:52;;;;;;;0.20;0.20;;;19.00;58.90;;;;;;5040338;28;20060;-52
2024/03/29 07:24:18;;;;;;;0.30;0.20;;;19.00;58.80;;;;;;5036785;28;20063;-53
2024/03/29 07:26:44;;;;;;;0.30;0.20;;;19.00;58.90;;;;;;5025816;28;20118;-53
2024/03/29 07:29:10;;;;;;;0.30;0.20;;;19.00;58.90;;;;;;5026143;28;21062;-52
2024/03/29 07:31:36;;;;;;;0.30;0.30;;;19.00;58.80;;;;;;5037999;28;20044;-57
2024/03/29 07:34:01;;;;;;;0.68;0.20;;;19.00;58.80;;;;;;5042319;28;20037;-56
2024/03/29 07:36:31;;;;;;;0.20;0.20;;;19.00;58.80;;;;;;5034818;28;20036;-48
2024/03/29 07:39:00;;;;;;;0.40;0.20;;;19.00;58.80;;;;;;5040621;28;20103;-49
2024/03/29 07:41:26;;;;;;;0.30;0.30;;;19.00;58.80;;;;;;5041164;28;20047;-56
2024/03/29 07:44:04;;;;;;;0.17;0.17;;;19.00;58.80;;;;;;5042133;28;20037;-51
2024/03/29 07:46:33;;;;;;;0.20;0.20;;;19.00;58.80;;;;;;5039894;28;20430;-54
2024/03/29 07:48:59;;;;;;;0.43;0.20;;;19.00;58.80;;;;;;5043203;28;20035;-49
2024/03/29 07:51:25;;;;;;;0.17;0.17;;;19.00;58.80;;;;;;5039415;28;20040;-52
2024/03/29 07:53:50;;;;;;;0.20;0.20;;;19.00;58.80;;;;;;5038805;28;20530;-60
2024/03/29 07:56:16;;;;;;;0.50;0.30;;;19.00;58.80;;;;;;5040281;28;20048;-49
2024/03/29 07:58:42;;;;;;;0.10;0.10;;;19.00;58.80;;;;;;5035997;28;20033;-55
2024/03/29 08:01:08;;;;;;;0.20;0.10;;;19.00;58.80;;;;;;5042630;28;20165;-49
2024/03/29 08:03:34;;;;;;;0.32;0.20;;;19.00;58.80;;;;;;5036551;28;20426;-54
2024/03/29 08:06:06;;;;;;;0.10;0.10;;;19.00;58.80;;;;;;5029682;28;20025;-52
2024/03/29 08:08:32;;;;;;;0.50;0.20;;;19.00;58.80;;;;;;5036675;28;20052;-48
2024/03/29 08:10:59;;;;;;;0.28;0.10;;;19.00;58.80;;;;;;5029768;28;20321;-51
2024/03/29 08:13:26;;;;;;;0.60;0.32;;;19.00;58.80;;;;;;5042076;28;20072;-51
2024/03/29 08:15:59;;;;;;;0.10;0.10;;;19.00;58.80;;;;;;5037576;28;20045;-53
2024/03/29 08:18:24;;;;;;;0.35;0.10;;;19.00;58.80;;;;;;5026689;28;20037;-49
2024/03/29 08:20:50;;;;;;;0.20;0.10;;;19.00;58.80;;;;;;5044698;28;20049;-56
2024/03/29 08:23:15;;;;;;;0.50;0.20;;;19.00;58.80;;;;;;5044503;28;20030;-52
2024/03/29 08:25:41;;;;;;;0.63;0.40;;;19.00;58.80;;;;;;5036032;28;20127;-54
2024/03/29 08:28:06;;;;;;;0.60;0.30;;;19.00;58.80;;;;;;5032930;28;20035;-48
2024/03/29 08:30:34;;;;;;;0.35;0.20;;;19.00;58.90;;;;;;5028775;28;20529;-53
2024/03/29 08:33:02;;;;;;;0.30;0.28;;;19.00;58.80;;;;;;5037921;28;20021;-54
2024/03/29 08:35:28;;;;;;;0.30;0.30;;;18.90;58.80;;;;;;5042131;28;20025;-50
2024/03/29 08:37:54;;;;;;;0.20;0.20;;;19.00;58.80;;;;;;5046281;28;20021;-49
2024/03/29 08:40:19;;;;;;;1.80;0.45;;;19.00;58.90;;;;;;5045400;28;20043;-52
2024/03/29 08:42:45;;;;;;;0.40;0.30;;;19.00;58.90;;;;;;5035810;28;20017;-57
2024/03/29 08:45:11;;;;;;;0.43;0.25;;;19.00;58.80;;;;;;5039938;28;20040;-55
2024/03/29 08:47:37;;;;;;;0.95;0.30;;;18.90;58.80;;;;;;5034875;28;20041;-48
2024/03/29 08:50:04;;;;;;;0.40;0.30;;;18.90;58.80;;;;;;5044639;28;20030;-48
2024/03/29 08:52:30;;;;;;;0.30;0.20;;;18.90;58.80;;;;;;5025897;28;20527;-54
2024/03/29 08:54:56;;;;;;;1.05;0.40;;;19.00;58.90;;;;;;5038906;28;20694;-55
2024/03/29 08:57:21;;;;;;;0.20;0.20;;;18.90;58.80;;;;;;5043374;28;20032;-51
2024/03/29 08:59:46;;;;;;;0.52;0.35;;;19.00;58.90;;;;;;5045190;28;20048;-49
2024/03/29 09:02:12;;;;;;;0.30;0.30;;;19.00;58.80;;;;;;5046240;28;20497;-52
2024/03/29 09:04:37;;;;;;;0.50;0.30;;;19.00;58.80;;;;;;5032867;28;20037;-55
2024/03/29 09:07:03;;;;;;;0.55;0.30;;;18.90;58.80;;;;;;5028320;28;20053;-52
2024/03/29 09:09:30;;;;;;;2.28;0.43;;;18.90;58.80;;;;;;5039131;28;20124;-53
2024/03/29 09:11:55;;;;;;;0.73;0.30;;;19.00;58.80;;;;;;5041301;28;20136;-51
2024/03/29 09:14:21;;;;;;;0.40;0.32;;;19.00;58.80;;;;;;5041830;28;20510;-48
2024/03/29 09:16:47;;;;;;;0.63;0.30;;;19.00;58.80;;;;;;5048754;28;20033;-50
2024/03/29 09:19:13;;;;;;;1.13;0.50;;;18.90;58.80;;;;;;5044572;28;20043;-54
2024/03/29 09:21:39;;;;;;;0.43;0.43;;;18.90;58.80;;;;;;5021184;28;20494;-51
2024/03/29 09:24:05;;;;;;;0.60;0.45;;;18.90;58.80;;;;;;5023550;28;20124;-49
2024/03/29 09:26:31;;;;;;;0.60;0.40;;;18.90;58.80;;;;;;5020337;28;20117;-52
2024/03/29 09:28:57;;;;;;;1.23;0.80;;;18.90;58.90;;;;;;5019794;28;20467;-57
2024/03/29 09:31:22;;;;;;;1.92;0.80;;;18.90;59.00;;;;;;5025679;28;20040;-57
2024/03/29 09:33:52;;;;;;;1.15;0.68;;;18.80;58.90;;;;;;5026459;28;20087;-52
2024/03/29 09:36:20;;;;;;;2.25;1.02;;;18.80;59.00;;;;;;5003314;28;20041;-59
2024/03/29 09:38:46;;;;;;;1.10;0.75;;;18.80;59.00;;;;;;5028893;28;20029;-56
2024/03/29 09:41:16;;;;;;;3.00;1.65;;;18.80;59.10;;;;;;5024455;28;20044;-57
2024/03/29 09:43:46;;;;;;;6.38;1.98;;;18.80;59.10;;;;;;5008875;28;20100;-55
2024/03/29 09:46:16;;;;;;;8.85;3.42;;;18.80;59.10;;;;;;5022964;28;20045;-55
2024/03/29 09:48:46;;;;;;;5.97;2.30;;;18.70;59.20;;;;;;5021453;28;20063;-54
2024/03/29 09:51:15;;;;;;;3.50;2.10;;;18.70;59.90;;;;;;4999790;28;20045;-52
2024/03/29 09:53:44;;;;;;;6.45;2.78;;;18.70;59.30;;;;;;5008449;28;20737;-53
2024/03/29 09:56:10;;;;;;;4.63;2.55;;;18.70;59.40;;;;;;5003423;28;20203;-57
2024/03/29 09:58:36;;;;;;;5.53;2.90;;;18.70;59.40;;;;;;5019832;28;20602;-57
2024/03/29 10:01:03;;;;;;;3.90;2.42;;;18.70;59.40;;;;;;5023568;28;20025;-56
2024/03/29 10:03:29;;;;;;;5.80;3.08;;;18.70;59.40;;;;;;5012790;28;20029;-50
2024/03/29 10:06:00;;;;;;;5.25;2.97;;;18.70;59.50;;;;;;5007885;28;20037;-57
2024/03/29 10:08:27;;;;;;;7.55;3.83;;;18.60;59.50;;;;;;5032186;28;20200;-56
2024/03/29 10:10:54;;;;;;;6.10;2.88;;;18.70;59.60;;;;;;5020910;28;20994;-51
2024/03/29 10:13:20;;;;;;;7.07;3.85;;;18.60;59.60;;;;;;5023401;28;20037;-60
2024/03/29 10:15:49;;;;;;;8.40;3.95;;;18.60;59.50;;;;;;5029632;28;20782;-55
2024/03/29 10:18:15;;;;;;;10.25;4.72;;;18.60;59.60;;;;;;5019961;28;20041;-53
2024/03/29 10:20:41;;;;;;;6.20;3.50;;;18.60;59.60;;;;;;5028546;28;20029;-54
2024/03/29 10:23:07;;;;;;;10.68;4.57;;;18.60;59.60;;;;;;5016813;28;20029;-54
2024/03/29 10:25:34;;;;;;;8.32;4.22;;;18.60;59.70;;;;;;5008139;28;20026;-51
2024/03/29 10:28:01;;;;;;;9.13;4.50;;;18.60;59.70;;;;;;5014046;28;20491;-57
2024/03/29 10:30:28;;;;;;;7.75;4.25;;;18.60;59.80;;;;;;5021030;28;20411;-50
2024/03/29 10:32:56;;;;;;;9.82;4.20;;;18.60;60.20;;;;;;5035188;28;20094;-53
2024/03/29 10:35:22;;;;;;;7.75;4.65;;;18.50;59.70;;;;;;5037291;28;20181;-55
2024/03/29 10:37:47;;;;;;;9.13;4.68;;;18.60;59.70;;;;;;5044142;28;20686;-56
2024/03/29 10:42:48;;;;;;;7.22;4.32;;;18.80;59.20;;;;;;4996059;28;20050;-51
2024/03/29 10:45:14;;;;;;;9.50;4.72;;;19.00;58.90;;;;;;5001443;28;20093;-50
2024/03/29 10:47:43;;;;;;;5.80;4.22;;;19.20;58.50;;;;;;5000688;28;20100;-53
2024/03/29 10:50:12;;;;;;;6.65;4.05;;;19.40;57.90;;;;;;5004211;28;20536;-53
2024/03/29 10:52:39;;;;;;;7.75;3.85;;;19.60;57.50;;;;;;5020861;28;20399;-53
2024/03/29 10:55:07;;;;;;;8.85;4.32;;;19.80;57.00;;;;;;5016677;28;20034;-51
2024/03/29 10:57:36;;;;;;;8.32;4.35;;;20.00;56.50;;;;;;5019830;28;20046;-52
2024/03/29 11:00:14;;;;;;;9.27;4.28;;;20.20;56.20;;;;;;5019472;28;20022;-51
2024/03/29 11:03:21;;;;;;;6.30;4.10;;;20.40;55.90;;;;;;5019375;28;20042;-53
2024/03/29 11:05:49;;;;;;;7.93;3.97;;;20.60;55.50;;;;;;5012574;28;20120;-51
2024/03/29 11:08:21;;;;;;;7.25;3.83;;;20.70;55.10;;;;;;5001835;28;20133;-49
2024/03/29 11:10:50;;;;;;;7.35;4.40;;;20.90;55.00;;;;;;4997375;28;20534;-58
2024/03/29 11:14:03;;;;;;;8.15;4.43;;;20.90;54.90;;;;;;5002246;28;20045;-53
2024/03/29 11:16:29;;;;;;;6.65;3.65;;;21.00;54.90;;;;;;4936431;28;20719;-54
2024/03/29 11:18:54;;;;;;;6.78;4.00;;;21.00;54.90;;;;;;4987783;28;20060;-52
2024/03/29 11:21:21;;;;;;;7.30;4.15;;;21.00;54.90;;;;;;4981718;28;20073;-51
2024/03/29 11:23:52;;;;;;;5.15;3.50;;;21.00;54.90;;;;;;4998886;28;20033;-53
2024/03/29 11:26:18;;;;;;;5.07;3.42;;;21.00;55.20;;;;;;4998636;28;20144;-53
2024/03/29 11:28:49;;;;;;;5.03;3.30;;;20.90;55.20;;;;;;4999459;28;20055;-51
2024/03/29 11:31:15;;;;;;;6.55;3.40;;;20.80;55.40;;;;;;4999348;28;20120;-50
2024/03/29 11:33:44;;;;;;;5.60;3.30;;;20.80;55.60;;;;;;4996123;28;20751;-54
2024/03/29 11:36:27;;;;;;;5.03;3.70;;;20.70;55.80;;;;;;4999992;28;20052;-53
2024/03/29 11:38:53;;;;;;;5.03;3.47;;;20.60;55.90;;;;;;4999726;28;20061;-50
2024/03/29 11:41:27;;;;;;;5.10;3.13;;;20.60;56.10;;;;;;5010249;28;20046;-52
2024/03/29 11:43:53;;;;;;;4.03;2.88;;;20.50;56.30;;;;;;5011509;28;20076;-51
2024/03/29 11:46:19;;;;;;;5.32;3.17;;;20.40;56.50;;;;;;5011724;28;20041;-53
2024/03/29 11:48:49;;;;;;;6.82;3.03;;;20.30;56.60;;;;;;5008159;28;20081;-56
2024/03/29 11:51:16;;;;;;;4.03;2.70;;;20.30;56.80;;;;;;5013920;28;20052;-52
2024/03/29 11:53:42;;;;;;;4.43;3.15;;;20.20;56.90;;;;;;5005486;28;20037;-50
2024/03/29 11:56:08;;;;;;;6.18;3.38;;;20.10;57.10;;;;;;5005963;28;20036;-52
2024/03/29 11:58:34;;;;;;;5.03;2.65;;;20.10;57.20;;;;;;5007691;28;20029;-52
2024/03/29 12:01:01;;;;;;;6.20;2.80;;;20.00;57.40;;;;;;5008042;28;20078;-49
2024/03/29 12:03:32;;;;;;;6.47;2.70;;;20.00;57.50;;;;;;5012231;28;20030;-51
2024/03/29 12:06:01;;;;;;;4.00;2.67;;;19.90;57.60;;;;;;5007092;28;20040;-57
2024/03/29 12:08:28;;;;;;;6.25;3.08;;;19.80;57.70;;;;;;5005578;28;20937;-52
2024/03/29 12:10:54;;;;;;;4.38;2.88;;;19.80;57.70;;;;;;5007254;28;20037;-50
2024/03/29 12:13:19;;;;;;;3.58;2.90;;;19.70;57.70;;;;;;4995670;28;20032;-54
2024/03/29 12:15:45;;;;;;;5.82;3.08;;;19.70;58.10;;;;;;5010837;28;20044;-54
2024/03/29 12:18:12;;;;;;;5.47;3.22;;;19.70;58.10;;;;;;4995858;28;20152;-51
2024/03/29 12:20:39;;;;;;;4.95;3.10;;;19.60;58.10;;;;;;5009323;28;20125;-51
2024/03/29 12:23:09;;;;;;;3.45;2.50;;;19.60;58.10;;;;;;5001691;28;20159;-53
2024/03/29 12:25:36;;;;;;;5.15;2.88;;;19.50;58.20;;;;;;4990389;28;20590;-52
2024/03/29 12:28:02;;;;;;;4.03;2.78;;;19.50;58.20;;;;;;5005264;28;20033;-52
2024/03/29 12:30:28;;;;;;;6.18;3.65;;;19.50;58.10;;;;;;5010617;28;20040;-54
2024/03/29 12:33:04;;;;;;;5.63;3.28;;;19.50;58.20;;;;;;5010109;28;20037;-53
2024/03/29 12:35:30;;;;;;;3.97;2.80;;;19.50;58.30;;;;;;5009981;28;20038;-51
2024/03/29 12:37:58;;;;;;;5.47;3.13;;;19.50;58.30;;;;;;4993199;28;20152;-53
2024/03/29 12:40:25;;;;;;;4.80;2.67;;;19.40;58.30;;;;;;5005868;28;20445;-56
2024/03/29 12:42:52;;;;;;;6.57;2.60;;;19.40;58.40;;;;;;5013202;28;20037;-51
2024/03/29 12:45:21;;;;;;;4.47;3.17;;;19.40;58.50;;;;;;5013147;28;20080;-51
2024/03/29 12:47:48;;;;;;;9.02;4.53;;;19.40;58.60;;;;;;5011666;28;20086;-49
2024/03/29 12:50:27;;;;;;;9.57;4.80;;;19.40;58.70;;;;;;5015746;28;20052;-50
2024/03/29 12:52:55;;;;;;;11.15;5.80;;;19.30;58.80;;;;;;5000222;28;20109;-52